createdAt,value
2023-02-08T00:00:16.249Z,22.73
2023-02-08T00:00:47.671Z,22.72
2023-02-08T00:01:19.109Z,22.70
2023-02-08T00:01:50.585Z,22.70
2023-02-08T00:02:22.062Z,22.71
2023-02-08T00:02:53.563Z,22.71
2023-02-08T00:03:25.110Z,22.73
2023-02-08T00:03:56.601Z,22.71
2023-02-08T00:04:28.053Z,22.69
2023-02-08T00:04:59.476Z,22.71
2023-02-08T00:05:30.920Z,22.69
2023-02-08T00:06:05.182Z,22.70
2023-02-08T00:06:36.633Z,22.70
2023-02-08T00:07:08.039Z,22.70
2023-02-08T00:07:39.424Z,22.70
2023-02-08T00:08:10.901Z,22.73
2023-02-08T00:08:42.298Z,22.70
2023-02-08T00:09:13.728Z,22.73
2023-02-08T00:09:45.075Z,22.70
2023-02-08T00:10:16.493Z,22.70
2023-02-08T00:10:47.893Z,22.68
2023-02-08T00:11:19.350Z,22.66
2023-02-08T00:11:50.824Z,22.68
2023-02-08T00:12:22.229Z,22.68
2023-02-08T00:12:53.641Z,22.69
2023-02-08T00:13:25.089Z,22.69
2023-02-08T00:13:56.461Z,22.70
2023-02-08T00:14:27.879Z,22.71
2023-02-08T00:14:59.290Z,22.69
2023-02-08T00:15:30.728Z,22.74
2023-02-08T00:16:02.152Z,22.73
2023-02-08T00:16:33.588Z,22.74
2023-02-08T00:17:05.038Z,22.74
2023-02-08T00:17:36.558Z,22.71
2023-02-08T00:18:08.086Z,22.73
2023-02-08T00:18:39.601Z,22.71
2023-02-08T00:19:11.071Z,22.69
2023-02-08T00:19:42.494Z,22.72
2023-02-08T00:20:13.993Z,22.72
2023-02-08T00:20:45.417Z,22.72
2023-02-08T00:21:16.845Z,22.69
2023-02-08T00:21:48.387Z,22.69
2023-02-08T00:22:19.832Z,22.68
2023-02-08T00:22:52.634Z,22.66
2023-02-08T00:23:24.858Z,22.65
2023-02-08T00:23:56.358Z,22.68
2023-02-08T00:24:27.836Z,22.68
2023-02-08T00:24:59.249Z,22.68
2023-02-08T00:25:30.643Z,22.70
2023-02-08T00:26:02.029Z,22.69
2023-02-08T00:26:33.493Z,22.69
2023-02-08T00:27:04.956Z,22.71
2023-02-08T00:27:36.387Z,22.70
2023-02-08T00:28:09.438Z,22.70
2023-02-08T00:28:40.974Z,22.69
2023-02-08T00:29:12.455Z,22.69
2023-02-08T00:29:43.879Z,22.69
2023-02-08T00:30:15.275Z,22.68
2023-02-08T00:30:46.672Z,22.69
2023-02-08T00:31:18.113Z,22.70
2023-02-08T00:31:52.407Z,22.70
2023-02-08T00:32:23.902Z,22.69
2023-02-08T00:32:55.321Z,22.69
2023-02-08T00:33:26.794Z,22.70
2023-02-08T00:33:58.392Z,22.65
2023-02-08T00:34:29.853Z,22.68
2023-02-08T00:35:01.289Z,22.70
2023-02-08T00:35:32.661Z,22.70
2023-02-08T00:36:04.144Z,22.72
2023-02-08T00:36:35.540Z,22.71
2023-02-08T00:37:06.942Z,22.72
2023-02-08T00:37:38.342Z,22.72
2023-02-08T00:38:09.766Z,22.72
2023-02-08T00:38:41.154Z,22.72
2023-02-08T00:39:12.605Z,22.69
2023-02-08T00:39:43.971Z,22.70
2023-02-08T00:40:15.442Z,22.73
2023-02-08T00:40:46.853Z,22.72
2023-02-08T00:41:18.220Z,22.68
2023-02-08T00:41:49.709Z,22.68
2023-02-08T00:42:21.094Z,22.69
2023-02-08T00:42:52.577Z,22.68
2023-02-08T00:43:23.977Z,22.72
2023-02-08T00:43:55.458Z,22.71
2023-02-08T00:44:26.857Z,22.69
2023-02-08T00:44:58.572Z,22.68
2023-02-08T00:45:30.036Z,22.68
2023-02-08T00:46:01.478Z,22.71
2023-02-08T00:46:32.988Z,22.67
2023-02-08T00:47:04.447Z,22.68
2023-02-08T00:47:35.830Z,22.68
2023-02-08T00:48:07.232Z,22.68
2023-02-08T00:48:38.602Z,22.69
2023-02-08T00:49:10.068Z,22.69
2023-02-08T00:49:41.423Z,22.69
2023-02-08T00:50:12.830Z,22.70
2023-02-08T00:50:44.300Z,22.68
2023-02-08T00:51:15.695Z,22.66
2023-02-08T00:51:47.142Z,22.68
2023-02-08T00:52:18.520Z,22.69
2023-02-08T00:52:49.952Z,22.68
2023-02-08T00:53:21.342Z,22.69
2023-02-08T00:53:52.758Z,22.68
2023-02-08T00:54:24.201Z,22.69
2023-02-08T00:54:55.613Z,22.71
2023-02-08T00:55:27.005Z,22.70
2023-02-08T00:55:58.424Z,22.70
2023-02-08T00:56:29.921Z,22.70
2023-02-08T00:57:01.375Z,22.67
2023-02-08T00:57:32.829Z,22.67
2023-02-08T00:58:04.257Z,22.71
2023-02-08T00:58:35.761Z,22.69
2023-02-08T00:59:07.172Z,22.67
2023-02-08T00:59:38.727Z,22.69
2023-02-08T01:00:10.104Z,22.69
2023-02-08T01:00:41.794Z,22.70
2023-02-08T01:01:13.401Z,22.67
2023-02-08T01:01:44.872Z,22.69
2023-02-08T01:02:16.368Z,22.69
2023-02-08T01:02:47.762Z,22.71
2023-02-08T01:03:19.231Z,22.68
2023-02-08T01:03:50.652Z,22.67
2023-02-08T01:04:22.049Z,22.69
2023-02-08T01:04:53.464Z,22.70
2023-02-08T01:05:24.893Z,22.67
2023-02-08T01:05:56.281Z,22.69
2023-02-08T01:06:27.710Z,22.70
2023-02-08T01:06:59.149Z,22.72
2023-02-08T01:07:30.557Z,22.67
2023-02-08T01:08:01.950Z,22.67
2023-02-08T01:08:33.431Z,22.66
2023-02-08T01:09:04.807Z,22.69
2023-02-08T01:09:36.225Z,22.68
2023-02-08T01:10:07.715Z,22.66
2023-02-08T01:10:42.344Z,22.65
2023-02-08T01:11:13.849Z,22.66
2023-02-08T01:11:45.234Z,22.68
2023-02-08T01:12:16.654Z,22.69
2023-02-08T01:12:48.053Z,22.67
2023-02-08T01:13:19.452Z,22.64
2023-02-08T01:13:50.964Z,22.66
2023-02-08T01:14:22.366Z,22.64
2023-02-08T01:14:53.753Z,22.65
2023-02-08T01:15:25.273Z,22.67
2023-02-08T01:15:56.697Z,22.66
2023-02-08T01:16:28.212Z,22.67
2023-02-08T01:16:59.639Z,22.65
2023-02-08T01:17:31.107Z,22.63
2023-02-08T01:18:02.573Z,22.63
2023-02-08T01:18:33.997Z,22.65
2023-02-08T01:19:05.394Z,22.63
2023-02-08T01:19:36.830Z,22.62
2023-02-08T01:20:08.329Z,22.67
2023-02-08T01:20:39.985Z,22.63
2023-02-08T01:21:11.522Z,22.66
2023-02-08T01:21:42.933Z,22.68
2023-02-08T01:22:14.360Z,22.66
2023-02-08T01:22:45.769Z,22.63
2023-02-08T01:23:17.159Z,22.64
2023-02-08T01:23:48.616Z,22.62
2023-02-08T01:24:20.032Z,22.66
2023-02-08T01:24:51.653Z,22.64
2023-02-08T01:25:23.101Z,22.65
2023-02-08T01:25:54.580Z,22.65
2023-02-08T01:26:26.004Z,22.68
2023-02-08T01:26:57.399Z,22.66
2023-02-08T01:27:28.861Z,22.70
2023-02-08T01:28:00.286Z,22.69
2023-02-08T01:28:31.843Z,22.68
2023-02-08T01:29:03.259Z,22.67
2023-02-08T01:29:34.675Z,22.65
2023-02-08T01:30:06.079Z,22.66
2023-02-08T01:30:37.573Z,22.66
2023-02-08T01:31:09.141Z,22.68
2023-02-08T01:31:40.754Z,22.68
2023-02-08T01:32:12.143Z,22.68
2023-02-08T01:32:43.568Z,22.68
2023-02-08T01:33:14.979Z,22.70
2023-02-08T01:33:46.411Z,22.70
2023-02-08T01:34:17.877Z,22.69
2023-02-08T01:34:49.309Z,22.68
2023-02-08T01:35:20.710Z,22.68
2023-02-08T01:35:52.358Z,22.68
2023-02-08T01:36:23.860Z,22.65
2023-02-08T01:36:55.388Z,22.68
2023-02-08T01:37:26.754Z,22.64
2023-02-08T01:37:58.168Z,22.64
2023-02-08T01:38:29.611Z,22.65
2023-02-08T01:39:01.017Z,22.66
2023-02-08T01:39:32.508Z,22.63
2023-02-08T01:40:03.897Z,22.64
2023-02-08T01:40:35.303Z,22.67
2023-02-08T01:41:06.738Z,22.67
2023-02-08T01:41:38.143Z,22.67
2023-02-08T01:42:09.551Z,22.65
2023-02-08T01:42:40.974Z,22.66
2023-02-08T01:43:12.395Z,22.66
2023-02-08T01:43:43.819Z,22.65
2023-02-08T01:44:15.218Z,22.64
2023-02-08T01:44:46.707Z,22.65
2023-02-08T01:45:18.139Z,22.64
2023-02-08T01:45:49.585Z,22.66
2023-02-08T01:46:21.079Z,22.66
2023-02-08T01:46:52.488Z,22.66
2023-02-08T01:47:24.029Z,22.69
2023-02-08T01:47:55.417Z,22.66
2023-02-08T01:48:26.880Z,22.66
2023-02-08T01:48:58.292Z,22.69
2023-02-08T01:49:29.665Z,22.68
2023-02-08T01:50:01.194Z,22.65
2023-02-08T01:50:32.602Z,22.62
2023-02-08T01:51:03.994Z,22.63
2023-02-08T01:51:35.442Z,22.63
2023-02-08T01:52:06.911Z,22.63
2023-02-08T01:52:38.334Z,22.64
2023-02-08T01:53:09.709Z,22.64
2023-02-08T01:53:41.115Z,22.67
2023-02-08T01:54:12.583Z,22.67
2023-02-08T01:54:43.984Z,22.68
2023-02-08T01:55:15.482Z,22.68
2023-02-08T01:55:46.861Z,22.67
2023-02-08T01:56:18.275Z,22.67
2023-02-08T01:56:49.675Z,22.69
2023-02-08T01:57:21.131Z,22.69
2023-02-08T01:57:52.569Z,22.71
2023-02-08T01:58:24.000Z,22.66
2023-02-08T01:58:55.425Z,22.66
2023-02-08T01:59:26.883Z,22.65
2023-02-08T01:59:58.329Z,22.64
2023-02-08T02:00:29.795Z,22.65
2023-02-08T02:01:01.188Z,22.65
2023-02-08T02:01:32.630Z,22.65
2023-02-08T02:02:04.121Z,22.68
2023-02-08T02:02:35.531Z,22.66
2023-02-08T02:03:07.027Z,22.64
2023-02-08T02:03:38.387Z,22.66
2023-02-08T02:04:09.775Z,22.68
2023-02-08T02:04:41.216Z,22.67
2023-02-08T02:05:12.593Z,22.64
2023-02-08T02:05:44.091Z,22.61
2023-02-08T02:06:15.525Z,22.63
2023-02-08T02:06:46.939Z,22.65
2023-02-08T02:07:18.400Z,22.64
2023-02-08T02:07:49.783Z,22.64
2023-02-08T02:08:21.188Z,22.63
2023-02-08T02:08:52.632Z,22.63
2023-02-08T02:09:24.057Z,22.64
2023-02-08T02:09:55.691Z,22.66
2023-02-08T02:10:27.131Z,22.69
2023-02-08T02:10:58.643Z,22.69
2023-02-08T02:11:30.065Z,22.68
2023-02-08T02:12:01.484Z,22.64
2023-02-08T02:12:32.921Z,22.62
2023-02-08T02:13:04.310Z,22.60
2023-02-08T02:13:35.723Z,22.63
2023-02-08T02:14:07.134Z,22.65
2023-02-08T02:14:38.552Z,22.61
2023-02-08T02:15:10.020Z,22.61
2023-02-08T02:15:41.421Z,22.60
2023-02-08T02:16:12.898Z,22.60
2023-02-08T02:16:44.324Z,22.63
2023-02-08T02:17:15.772Z,22.63
2023-02-08T02:17:47.234Z,22.61
2023-02-08T02:18:18.639Z,22.62
2023-02-08T02:18:50.055Z,22.63
2023-02-08T02:19:21.447Z,22.62
2023-02-08T02:19:52.861Z,22.64
2023-02-08T02:20:24.266Z,22.63
2023-02-08T02:20:55.668Z,22.63
2023-02-08T02:21:27.133Z,22.62
2023-02-08T02:21:58.537Z,22.59
2023-02-08T02:22:29.975Z,22.63
2023-02-08T02:23:01.442Z,22.65
2023-02-08T02:23:32.846Z,22.64
2023-02-08T02:24:04.295Z,22.62
2023-02-08T02:24:35.776Z,22.61
2023-02-08T02:25:07.186Z,22.58
2023-02-08T02:25:38.637Z,22.60
2023-02-08T02:26:10.046Z,22.59
2023-02-08T02:26:41.483Z,22.60
2023-02-08T02:27:12.906Z,22.59
2023-02-08T02:27:44.311Z,22.58
2023-02-08T02:28:15.796Z,22.60
2023-02-08T02:28:47.238Z,22.62
2023-02-08T02:29:18.606Z,22.63
2023-02-08T02:29:50.038Z,22.61
2023-02-08T02:30:21.491Z,22.60
2023-02-08T02:30:52.959Z,22.59
2023-02-08T02:31:24.485Z,22.57
2023-02-08T02:31:56.192Z,22.57
2023-02-08T02:32:27.621Z,22.60
2023-02-08T02:32:59.049Z,22.62
2023-02-08T02:33:30.500Z,22.64
2023-02-08T02:34:01.935Z,22.67
2023-02-08T02:34:33.343Z,22.62
2023-02-08T02:35:04.750Z,22.59
2023-02-08T02:35:36.219Z,22.62
2023-02-08T02:36:07.641Z,22.66
2023-02-08T02:36:39.060Z,22.65
2023-02-08T02:37:10.560Z,22.64
2023-02-08T02:37:41.997Z,22.62
2023-02-08T02:38:13.405Z,22.64
2023-02-08T02:38:44.822Z,22.63
2023-02-08T02:39:16.195Z,22.60
2023-02-08T02:39:47.565Z,22.60
2023-02-08T02:40:18.952Z,22.57
2023-02-08T02:40:50.454Z,22.57
2023-02-08T02:41:21.925Z,22.57
2023-02-08T02:41:53.376Z,22.56
2023-02-08T02:42:24.825Z,22.58
2023-02-08T02:42:56.231Z,22.61
2023-02-08T02:43:27.669Z,22.61
2023-02-08T02:43:59.033Z,22.61
2023-02-08T02:44:30.458Z,22.59
2023-02-08T02:45:04.648Z,22.59
2023-02-08T02:45:36.082Z,22.61
2023-02-08T02:46:07.552Z,22.61
2023-02-08T02:46:38.980Z,22.60
2023-02-08T02:47:10.376Z,22.58
2023-02-08T02:47:41.862Z,22.59
2023-02-08T02:48:13.228Z,22.61
2023-02-08T02:48:44.674Z,22.58
2023-02-08T02:49:16.063Z,22.60
2023-02-08T02:49:47.462Z,22.61
2023-02-08T02:50:18.926Z,22.59
2023-02-08T02:50:50.385Z,22.61
2023-02-08T02:51:21.799Z,22.62
2023-02-08T02:51:53.179Z,22.64
2023-02-08T02:52:24.588Z,22.64
2023-02-08T02:52:56.049Z,22.65
2023-02-08T02:53:27.449Z,22.66
2023-02-08T02:53:58.860Z,22.67
2023-02-08T02:54:30.246Z,22.67
2023-02-08T02:55:01.637Z,22.67
2023-02-08T02:55:33.036Z,22.69
2023-02-08T02:56:04.431Z,22.66
2023-02-08T02:56:35.836Z,22.67
2023-02-08T02:57:07.282Z,22.65
2023-02-08T02:57:38.695Z,22.65
2023-02-08T02:58:10.178Z,22.66
2023-02-08T02:58:41.590Z,22.64
2023-02-08T02:59:12.995Z,22.67
2023-02-08T02:59:44.405Z,22.63
2023-02-08T03:00:15.750Z,22.63
2023-02-08T03:00:47.258Z,22.65
2023-02-08T03:01:18.740Z,22.66
2023-02-08T03:01:50.221Z,22.65
2023-02-08T03:02:21.632Z,22.64
2023-02-08T03:02:53.053Z,22.64
2023-02-08T03:03:24.532Z,22.62
2023-02-08T03:03:55.999Z,22.63
2023-02-08T03:04:27.546Z,22.62
2023-02-08T03:04:59.022Z,22.57
2023-02-08T03:05:30.594Z,22.55
2023-02-08T03:06:02.110Z,22.55
2023-02-08T03:06:33.607Z,22.54
2023-02-08T03:07:05.022Z,22.56
2023-02-08T03:07:36.480Z,22.52
2023-02-08T03:08:07.968Z,22.52
2023-02-08T03:08:39.356Z,22.55
2023-02-08T03:09:10.824Z,22.54
2023-02-08T03:09:42.286Z,22.56
2023-02-08T03:10:13.752Z,22.57
2023-02-08T03:10:45.155Z,22.62
2023-02-08T03:11:16.593Z,22.65
2023-02-08T03:11:48.015Z,22.60
2023-02-08T03:12:19.413Z,22.58
2023-02-08T03:12:50.809Z,22.58
2023-02-08T03:13:22.178Z,22.59
2023-02-08T03:13:53.622Z,22.58
2023-02-08T03:14:25.105Z,22.58
2023-02-08T03:14:56.551Z,22.58
2023-02-08T03:15:27.975Z,22.61
2023-02-08T03:15:59.484Z,22.58
2023-02-08T03:16:30.972Z,22.57
2023-02-08T03:17:02.498Z,22.57
2023-02-08T03:17:33.964Z,22.60
2023-02-08T03:18:05.387Z,22.58
2023-02-08T03:18:36.800Z,22.57
2023-02-08T03:19:08.211Z,22.58
2023-02-08T03:19:39.571Z,22.59
2023-02-08T03:20:11.035Z,22.61
2023-02-08T03:20:42.634Z,22.60
2023-02-08T03:21:14.253Z,22.58
2023-02-08T03:21:45.758Z,22.58
2023-02-08T03:22:17.200Z,22.54
2023-02-08T03:22:48.598Z,22.54
2023-02-08T03:23:20.012Z,22.54
2023-02-08T03:23:51.448Z,22.58
2023-02-08T03:24:22.834Z,22.60
2023-02-08T03:24:54.244Z,22.59
2023-02-08T03:25:25.643Z,22.57
2023-02-08T03:25:57.026Z,22.56
2023-02-08T03:26:28.431Z,22.52
2023-02-08T03:27:00.150Z,22.56
2023-02-08T03:27:31.561Z,22.57
2023-02-08T03:28:03.063Z,22.61
2023-02-08T03:28:34.480Z,22.60
2023-02-08T03:29:05.882Z,22.60
2023-02-08T03:29:37.290Z,22.61
2023-02-08T03:30:08.740Z,22.60
2023-02-08T03:30:42.007Z,22.62
2023-02-08T03:31:13.768Z,22.60
2023-02-08T03:31:45.332Z,22.55
2023-02-08T03:32:16.863Z,22.57
2023-02-08T03:32:48.296Z,22.54
2023-02-08T03:33:19.704Z,22.53
2023-02-08T03:33:51.118Z,22.56
2023-02-08T03:34:22.548Z,22.55
2023-02-08T03:34:53.977Z,22.52
2023-02-08T03:35:25.398Z,22.53
2023-02-08T03:35:56.840Z,22.56
2023-02-08T03:36:28.262Z,22.57
2023-02-08T03:36:59.615Z,22.58
2023-02-08T03:37:31.103Z,22.60
2023-02-08T03:38:02.527Z,22.59
2023-02-08T03:38:33.950Z,22.57
2023-02-08T03:39:05.415Z,22.57
2023-02-08T03:39:36.839Z,22.60
2023-02-08T03:40:08.354Z,22.58
2023-02-08T03:40:40.071Z,22.58
2023-02-08T03:41:11.719Z,22.58
2023-02-08T03:41:43.105Z,22.58
2023-02-08T03:42:14.582Z,22.58
2023-02-08T03:42:46.024Z,22.58
2023-02-08T03:43:17.464Z,22.59
2023-02-08T03:43:48.921Z,22.56
2023-02-08T03:44:20.292Z,22.57
2023-02-08T03:44:51.689Z,22.58
2023-02-08T03:45:23.108Z,22.57
2023-02-08T03:45:54.539Z,22.55
2023-02-08T03:46:25.979Z,22.56
2023-02-08T03:46:57.405Z,22.57
2023-02-08T03:47:28.802Z,22.58
2023-02-08T03:48:00.370Z,22.58
2023-02-08T03:48:31.760Z,22.57
2023-02-08T03:49:03.201Z,22.57
2023-02-08T03:49:34.618Z,22.55
2023-02-08T03:50:06.000Z,22.57
2023-02-08T03:50:37.510Z,22.60
2023-02-08T03:51:09.164Z,22.57
2023-02-08T03:51:40.570Z,22.59
2023-02-08T03:52:11.938Z,22.57
2023-02-08T03:52:43.400Z,22.59
2023-02-08T03:53:14.884Z,22.59
2023-02-08T03:53:46.355Z,22.56
2023-02-08T03:54:17.729Z,22.54
2023-02-08T03:54:49.189Z,22.55
2023-02-08T03:55:20.611Z,22.55
2023-02-08T03:55:52.052Z,22.53
2023-02-08T03:56:23.461Z,22.56
2023-02-08T03:56:54.857Z,22.52
2023-02-08T03:57:26.264Z,22.52
2023-02-08T03:57:57.636Z,22.54
2023-02-08T03:58:29.114Z,22.56
2023-02-08T03:59:00.542Z,22.56
2023-02-08T03:59:31.996Z,22.57
2023-02-08T04:00:04.032Z,22.56
2023-02-08T04:00:35.404Z,22.56
2023-02-08T04:01:06.905Z,22.58
2023-02-08T04:01:38.348Z,22.59
2023-02-08T04:02:09.833Z,22.58
2023-02-08T04:02:41.298Z,22.58
2023-02-08T04:03:12.746Z,22.58
2023-02-08T04:03:44.232Z,22.61
2023-02-08T04:04:15.614Z,22.61
2023-02-08T04:04:47.214Z,22.62
2023-02-08T04:05:18.664Z,22.63
2023-02-08T04:05:50.105Z,22.62
2023-02-08T04:06:21.547Z,22.60
2023-02-08T04:06:54.993Z,22.62
2023-02-08T04:07:26.414Z,22.61
2023-02-08T04:07:57.797Z,22.63
2023-02-08T04:08:29.193Z,22.61
2023-02-08T04:09:00.608Z,22.62
2023-02-08T04:09:32.063Z,22.62
2023-02-08T04:10:03.658Z,22.60
2023-02-08T04:10:35.098Z,22.63
2023-02-08T04:11:06.539Z,22.60
2023-02-08T04:11:37.941Z,22.61
2023-02-08T04:12:09.341Z,22.58
2023-02-08T04:12:40.760Z,22.60
2023-02-08T04:13:12.205Z,22.61
2023-02-08T04:13:43.655Z,22.63
2023-02-08T04:14:15.059Z,22.59
2023-02-08T04:14:46.492Z,22.60
2023-02-08T04:15:17.916Z,22.58
2023-02-08T04:15:49.361Z,22.58
2023-02-08T04:16:20.747Z,22.60
2023-02-08T04:16:54.682Z,22.61
2023-02-08T04:17:26.106Z,22.59
2023-02-08T04:17:57.564Z,22.58
2023-02-08T04:18:28.960Z,22.60
2023-02-08T04:19:00.350Z,22.59
2023-02-08T04:19:31.769Z,22.59
2023-02-08T04:20:03.288Z,22.59
2023-02-08T04:20:34.747Z,22.59
2023-02-08T04:21:06.190Z,22.63
2023-02-08T04:21:37.578Z,22.63
2023-02-08T04:22:08.966Z,22.60
2023-02-08T04:22:40.458Z,22.60
2023-02-08T04:23:12.040Z,22.60
2023-02-08T04:23:43.486Z,22.60
2023-02-08T04:24:14.984Z,22.61
2023-02-08T04:24:46.408Z,22.59
2023-02-08T04:25:17.882Z,22.62
2023-02-08T04:25:49.295Z,22.62
2023-02-08T04:26:20.763Z,22.63
2023-02-08T04:26:54.851Z,22.63
2023-02-08T04:27:26.244Z,22.62
2023-02-08T04:27:57.654Z,22.63
2023-02-08T04:28:29.123Z,22.63
2023-02-08T04:29:00.528Z,22.62
2023-02-08T04:29:31.992Z,22.63
2023-02-08T04:30:06.474Z,22.62
2023-02-08T04:30:37.923Z,22.58
2023-02-08T04:31:09.561Z,22.57
2023-02-08T04:31:41.142Z,22.59
2023-02-08T04:32:12.538Z,22.56
2023-02-08T04:32:44.006Z,22.58
2023-02-08T04:33:15.472Z,22.59
2023-02-08T04:33:46.889Z,22.58
2023-02-08T04:34:18.292Z,22.57
2023-02-08T04:34:49.668Z,22.57
2023-02-08T04:35:21.060Z,22.57
2023-02-08T04:35:52.458Z,22.57
2023-02-08T04:36:23.853Z,22.58
2023-02-08T04:36:55.318Z,22.58
2023-02-08T04:37:26.734Z,22.59
2023-02-08T04:37:58.144Z,22.61
2023-02-08T04:38:29.582Z,22.61
2023-02-08T04:39:01.045Z,22.59
2023-02-08T04:39:32.454Z,22.60
2023-02-08T04:40:04.034Z,22.57
2023-02-08T04:40:35.448Z,22.59
2023-02-08T04:41:06.954Z,22.61
2023-02-08T04:41:38.355Z,22.63
2023-02-08T04:42:09.906Z,22.60
2023-02-08T04:42:41.300Z,22.59
2023-02-08T04:43:12.678Z,22.58
2023-02-08T04:43:44.095Z,22.62
2023-02-08T04:44:15.541Z,22.64
2023-02-08T04:44:46.970Z,22.61
2023-02-08T04:45:18.414Z,22.59
2023-02-08T04:45:49.847Z,22.60
2023-02-08T04:46:21.271Z,22.62
2023-02-08T04:46:52.699Z,22.58
2023-02-08T04:47:24.209Z,22.61
2023-02-08T04:47:55.576Z,22.60
2023-02-08T04:48:27.088Z,22.60
2023-02-08T04:48:59.078Z,22.60
2023-02-08T04:49:30.572Z,22.59
2023-02-08T04:50:01.984Z,22.60
2023-02-08T04:50:33.400Z,22.61
2023-02-08T04:51:04.844Z,22.60
2023-02-08T04:51:36.274Z,22.58
2023-02-08T04:52:07.817Z,22.56
2023-02-08T04:52:39.272Z,22.55
2023-02-08T04:53:10.655Z,22.56
2023-02-08T04:53:42.041Z,22.58
2023-02-08T04:54:13.477Z,22.60
2023-02-08T04:54:45.074Z,22.58
2023-02-08T04:55:16.497Z,22.59
2023-02-08T04:55:47.891Z,22.56
2023-02-08T04:56:19.328Z,22.59
2023-02-08T04:56:50.798Z,22.62
2023-02-08T04:57:22.275Z,22.61
2023-02-08T04:57:53.673Z,22.63
2023-02-08T04:58:25.115Z,22.64
2023-02-08T04:58:56.491Z,22.60
2023-02-08T04:59:27.884Z,22.59
2023-02-08T05:00:00.423Z,22.60
2023-02-08T05:00:34.714Z,22.60
2023-02-08T05:01:06.254Z,22.62
2023-02-08T05:01:37.806Z,22.58
2023-02-08T05:02:09.248Z,22.61
2023-02-08T05:02:40.691Z,22.60
2023-02-08T05:03:12.081Z,22.57
2023-02-08T05:03:43.520Z,22.59
2023-02-08T05:04:14.899Z,22.61
2023-02-08T05:04:46.318Z,22.60
2023-02-08T05:05:17.801Z,22.60
2023-02-08T05:05:49.214Z,22.59
2023-02-08T05:06:20.682Z,22.57
2023-02-08T05:06:52.164Z,22.58
2023-02-08T05:07:26.419Z,22.57
2023-02-08T05:07:57.896Z,22.55
2023-02-08T05:08:29.434Z,22.55
2023-02-08T05:09:00.830Z,22.59
2023-02-08T05:09:32.303Z,22.60
2023-02-08T05:10:03.728Z,22.57
2023-02-08T05:10:35.206Z,22.59
2023-02-08T05:11:06.848Z,22.56
2023-02-08T05:11:38.267Z,22.57
2023-02-08T05:12:09.697Z,22.57
2023-02-08T05:12:41.104Z,22.57
2023-02-08T05:13:12.524Z,22.56
2023-02-08T05:13:43.937Z,22.58
2023-02-08T05:14:15.477Z,22.56
2023-02-08T05:14:46.883Z,22.54
2023-02-08T05:15:21.067Z,22.58
2023-02-08T05:15:52.524Z,22.56
2023-02-08T05:16:23.975Z,22.59
2023-02-08T05:16:55.422Z,22.58
2023-02-08T05:17:26.900Z,22.59
2023-02-08T05:17:58.334Z,22.57
2023-02-08T05:18:29.869Z,22.58
2023-02-08T05:19:01.285Z,22.58
2023-02-08T05:19:32.677Z,22.56
2023-02-08T05:20:04.100Z,22.58
2023-02-08T05:20:35.469Z,22.57
2023-02-08T05:21:06.946Z,22.59
2023-02-08T05:21:38.361Z,22.57
2023-02-08T05:22:09.804Z,22.58
2023-02-08T05:22:41.198Z,22.56
2023-02-08T05:23:12.586Z,22.58
2023-02-08T05:23:46.582Z,22.56
2023-02-08T05:24:18.226Z,22.57
2023-02-08T05:24:49.637Z,22.54
2023-02-08T05:25:21.097Z,22.57
2023-02-08T05:25:52.516Z,22.54
2023-02-08T05:26:23.913Z,22.57
2023-02-08T05:26:55.295Z,22.55
2023-02-08T05:27:26.686Z,22.54
2023-02-08T05:27:58.116Z,22.52
2023-02-08T05:28:29.548Z,22.54
2023-02-08T05:29:01.018Z,22.54
2023-02-08T05:29:32.446Z,22.59
2023-02-08T05:30:04.128Z,22.60
2023-02-08T05:30:35.570Z,22.61
2023-02-08T05:31:07.025Z,22.63
2023-02-08T05:31:38.525Z,22.62
2023-02-08T05:32:09.998Z,22.60
2023-02-08T05:32:41.407Z,22.60
2023-02-08T05:33:12.867Z,22.61
2023-02-08T05:33:44.298Z,22.60
2023-02-08T05:34:15.844Z,22.60
2023-02-08T05:34:47.217Z,22.58
2023-02-08T05:35:18.652Z,22.59
2023-02-08T05:35:50.054Z,22.58
2023-02-08T05:36:21.444Z,22.57
2023-02-08T05:36:52.852Z,22.58
2023-02-08T05:37:24.238Z,22.58
2023-02-08T05:37:55.620Z,22.62
2023-02-08T05:38:27.023Z,22.57
2023-02-08T05:38:58.420Z,22.57
2023-02-08T05:39:29.919Z,22.61
2023-02-08T05:40:01.328Z,22.58
2023-02-08T05:40:32.823Z,22.60
2023-02-08T05:41:04.248Z,22.58
2023-02-08T05:41:35.659Z,22.58
2023-02-08T05:42:07.221Z,22.60
2023-02-08T05:42:38.747Z,22.58
2023-02-08T05:43:10.213Z,22.58
2023-02-08T05:43:41.638Z,22.58
2023-02-08T05:44:13.076Z,22.58
2023-02-08T05:44:44.521Z,22.59
2023-02-08T05:45:16.008Z,22.57
2023-02-08T05:45:47.434Z,22.57
2023-02-08T05:46:20.624Z,22.57
2023-02-08T05:46:52.093Z,22.60
2023-02-08T05:47:23.523Z,22.57
2023-02-08T05:47:54.937Z,22.59
2023-02-08T05:48:26.358Z,22.59
2023-02-08T05:48:57.733Z,22.60
2023-02-08T05:49:29.147Z,22.60
2023-02-08T05:50:00.669Z,22.59
2023-02-08T05:50:32.084Z,22.59
2023-02-08T05:51:03.558Z,22.57
2023-02-08T05:51:34.956Z,22.58
2023-02-08T05:52:06.358Z,22.61
2023-02-08T05:52:37.775Z,22.58
2023-02-08T05:53:09.178Z,22.59
2023-02-08T05:53:40.642Z,22.62
2023-02-08T05:54:12.086Z,22.61
2023-02-08T05:54:43.486Z,22.59
2023-02-08T05:55:14.957Z,22.61
2023-02-08T05:55:46.354Z,22.62
2023-02-08T05:56:17.782Z,22.63
2023-02-08T05:56:49.221Z,22.64
2023-02-08T05:57:20.622Z,22.59
2023-02-08T05:57:52.021Z,22.61
2023-02-08T05:58:23.388Z,22.62
2023-02-08T05:58:54.815Z,22.60
2023-02-08T05:59:26.234Z,22.60
2023-02-08T05:59:57.641Z,22.57
2023-02-08T06:00:29.149Z,22.56
2023-02-08T06:01:00.577Z,22.57
2023-02-08T06:01:32.062Z,22.55
2023-02-08T06:02:03.480Z,22.54
2023-02-08T06:02:34.889Z,22.56
2023-02-08T06:03:06.305Z,22.60
2023-02-08T06:03:37.732Z,22.55
2023-02-08T06:04:09.349Z,22.55
2023-02-08T06:04:40.749Z,22.59
2023-02-08T06:05:12.214Z,22.60
2023-02-08T06:05:43.684Z,22.61
2023-02-08T06:06:15.128Z,22.60
2023-02-08T06:06:46.561Z,22.58
2023-02-08T06:07:18.030Z,22.58
2023-02-08T06:07:49.492Z,22.60
2023-02-08T06:08:20.965Z,22.59
2023-02-08T06:08:52.436Z,22.60
2023-02-08T06:09:23.813Z,22.58
2023-02-08T06:09:55.214Z,22.55
2023-02-08T06:10:26.663Z,22.56
2023-02-08T06:10:58.102Z,22.55
2023-02-08T06:11:29.544Z,22.53
2023-02-08T06:12:00.943Z,22.55
2023-02-08T06:12:32.361Z,22.56
2023-02-08T06:13:03.822Z,22.57
2023-02-08T06:13:35.232Z,22.59
2023-02-08T06:14:06.705Z,22.57
2023-02-08T06:14:38.133Z,22.55
2023-02-08T06:15:09.712Z,22.55
2023-02-08T06:15:41.119Z,22.58
2023-02-08T06:16:12.615Z,22.59
2023-02-08T06:16:44.092Z,22.58
2023-02-08T06:17:15.528Z,22.59
2023-02-08T06:17:46.965Z,22.58
2023-02-08T06:18:18.445Z,22.61
2023-02-08T06:18:49.878Z,22.60
2023-02-08T06:19:21.294Z,22.59
2023-02-08T06:19:52.700Z,22.60
2023-02-08T06:20:24.168Z,22.59
2023-02-08T06:20:55.580Z,22.62
2023-02-08T06:21:26.968Z,22.59
2023-02-08T06:21:58.404Z,22.61
2023-02-08T06:22:31.593Z,22.61
2023-02-08T06:23:03.065Z,22.61
2023-02-08T06:23:34.515Z,22.58
2023-02-08T06:24:05.956Z,22.59
2023-02-08T06:24:37.380Z,22.60
2023-02-08T06:25:09.083Z,22.60
2023-02-08T06:25:40.555Z,22.58
2023-02-08T06:26:11.964Z,22.54
2023-02-08T06:26:43.356Z,22.56
2023-02-08T06:27:14.757Z,22.57
2023-02-08T06:27:46.138Z,22.58
2023-02-08T06:28:17.605Z,22.58
2023-02-08T06:28:49.035Z,22.59
2023-02-08T06:29:20.479Z,22.57
2023-02-08T06:29:52.053Z,22.57
2023-02-08T06:30:23.503Z,22.58
2023-02-08T06:30:54.877Z,22.58
2023-02-08T06:31:26.316Z,22.60
2023-02-08T06:31:57.881Z,22.60
2023-02-08T06:32:29.408Z,22.58
2023-02-08T06:33:00.877Z,22.58
2023-02-08T06:33:32.429Z,22.56
2023-02-08T06:34:03.953Z,22.56
2023-02-08T06:34:35.364Z,22.56
2023-02-08T06:35:06.820Z,22.57
2023-02-08T06:35:38.217Z,22.52
2023-02-08T06:36:09.638Z,22.54
2023-02-08T06:36:41.050Z,22.55
2023-02-08T06:37:12.485Z,22.55
2023-02-08T06:37:43.905Z,22.55
2023-02-08T06:38:15.263Z,22.56
2023-02-08T06:38:46.750Z,22.55
2023-02-08T06:39:18.193Z,22.54
2023-02-08T06:39:49.613Z,22.57
2023-02-08T06:40:21.055Z,22.58
2023-02-08T06:40:52.474Z,22.58
2023-02-08T06:41:23.846Z,22.60
2023-02-08T06:41:55.347Z,22.55
2023-02-08T06:42:26.781Z,22.57
2023-02-08T06:42:58.202Z,22.58
2023-02-08T06:43:29.585Z,22.59
2023-02-08T06:44:01.054Z,22.56
2023-02-08T06:44:32.466Z,22.54
2023-02-08T06:45:03.860Z,22.52
2023-02-08T06:45:35.303Z,22.54